Main page
METAR-TAF:

METAR-TAF

Airports :

Carrasco International Airport

Montevideo, Uruguay

latitude: 34-50S, longitude: 056-00W, elevation: 32 m

Current weather observation

The report was made 42 minutes ago, at 10:00 UTC
Wind 9 kt from the North
Temperature 19°C
Humidity 88%
Pressure 1014 hPa
Visibility 10 km or more
no clouds below 1500 m and no cumulonimbus

METAR: SUMU 061000Z 01009KT CAVOK 19/17 Q1014 NOSIG

Time: 07:42 (10:42 UTC)

Forecast

The report was made 5 hours and 12 minutes ago, at 05:30 UTC
Forecast valid from 06 at 06 UTC to 07 at 06 UTC
Wind 5 kt from the North/Northeast
Visibility 10 km or more
no clouds below 1500 m and no cumulonimbus
Becoming
from 06 at 16 UTC to 06 at 18 UTC
Wind 13 kt from the Southeast

TAF: SUMU 060530Z 0606/0706 03005KT CAVOK TX33/0618Z TN19/0609Z BECMG 0616/0618 14013KT

Weather observations and forecasts of more than 4000 airports (METAR and TAF reports).

The available stations are represented by yellow and red dots on the map.

Hover mouse over dot to see the name of the station.

Then click to see weather observations and forecasts.

To change the map : click on the green buttons with a black cross to zoom in, on the green button with a dash to zoom out, or on the green arrows for adjacent maps.


METAR-TAF: